Time;durP1;ratioP1;P1;durP2;ratioP2;P2;SDS_P1;SDS_P2;PMS_P1;PMS_P2;Temp;Humidity;BMP_temperature;BMP_pressure;BME280_temperature;BME280_humidity;BME280_pressure;Samples;Min_cycle;Max_cycle;Signal;HPM_P1;HPM_P2
2023/01/31 00:01:40;;;;;;;1.00;0.97;;;4.60;99.10;;;;;;6201554;28;20499;-65
2023/01/31 00:04:43;;;;;;;0.70;0.70;;;4.60;99.00;;;;;;6201557;28;20488;-65
2023/01/31 00:07:47;;;;;;;1.23;0.90;;;4.60;98.70;;;;;;6201619;28;20480;-64
2023/01/31 00:10:51;;;;;;;1.13;1.10;;;4.60;98.70;;;;;;6201606;28;20487;-64
2023/01/31 00:13:55;;;;;;;0.83;0.83;;;4.60;98.60;;;;;;6201799;28;20490;-65
2023/01/31 00:16:58;;;;;;;0.90;0.80;;;4.70;98.30;;;;;;6201476;28;20480;-64
2023/01/31 00:20:01;;;;;;;0.80;0.80;;;4.70;98.00;;;;;;6201131;28;20484;-64
2023/01/31 00:23:04;;;;;;;1.30;1.20;;;4.70;97.80;;;;;;6201205;28;20481;-64
2023/01/31 00:26:11;;;;;;;0.90;0.90;;;4.70;97.70;;;;;;6201371;28;20473;-65
2023/01/31 00:29:14;;;;;;;0.80;0.80;;;4.60;97.90;;;;;;6196801;28;20571;-64
2023/01/31 00:32:17;;;;;;;0.93;0.93;;;4.60;97.90;;;;;;6201043;28;20484;-65
2023/01/31 00:35:21;;;;;;;0.80;0.70;;;4.60;97.90;;;;;;6201126;28;20991;-65
2023/01/31 00:38:24;;;;;;;1.10;1.00;;;4.70;97.70;;;;;;6200844;28;20512;-65
2023/01/31 00:41:30;;;;;;;1.10;1.07;;;4.70;97.70;;;;;;6200931;28;20469;-65
2023/01/31 00:44:33;;;;;;;1.80;0.73;;;4.70;97.80;;;;;;6201756;28;20460;-65
2023/01/31 00:47:37;;;;;;;1.07;0.90;;;4.70;97.90;;;;;;6201598;28;20448;-65
2023/01/31 00:50:40;;;;;;;0.70;0.70;;;4.60;97.90;;;;;;6201380;28;20503;-65
2023/01/31 00:53:43;;;;;;;1.37;0.90;;;4.60;97.90;;;;;;6201156;28;20444;-65
2023/01/31 00:56:48;;;;;;;1.20;1.10;;;4.60;98.00;;;;;;6201238;28;20461;-65
2023/01/31 00:59:51;;;;;;;0.80;0.70;;;4.60;98.10;;;;;;6200619;28;20465;-65
2023/01/31 01:02:54;;;;;;;2.10;0.90;;;4.70;98.30;;;;;;6200575;28;20461;-65
2023/01/31 01:05:57;;;;;;;0.83;0.70;;;4.60;98.50;;;;;;6199907;28;20481;-65
2023/01/31 01:09:01;;;;;;;0.87;0.87;;;4.70;98.60;;;;;;6202626;28;20906;-65
2023/01/31 01:12:06;;;;;;;1.23;1.17;;;4.60;98.60;;;;;;6204926;28;20472;-65
2023/01/31 01:15:10;;;;;;;1.10;1.00;;;4.50;98.80;;;;;;6205135;28;20468;-65
2023/01/31 01:18:13;;;;;;;1.13;0.83;;;4.50;99.00;;;;;;6204820;28;20745;-65
2023/01/31 01:21:18;;;;;;;1.63;0.90;;;4.40;99.10;;;;;;6205077;28;20480;-65
2023/01/31 01:24:21;;;;;;;0.73;0.73;;;4.40;99.30;;;;;;6205330;28;20469;-65
2023/01/31 01:27:26;;;;;;;1.27;0.80;;;4.40;99.90;;;;;;6204594;28;20804;-65
2023/01/31 01:30:30;;;;;;;0.70;0.70;;;4.50;99.60;;;;;;6204741;28;20492;-65
2023/01/31 01:33:34;;;;;;;1.07;0.97;;;4.40;99.90;;;;;;6204779;28;20482;-65
2023/01/31 01:36:37;;;;;;;1.10;1.00;;;4.40;99.90;;;;;;6205025;28;20489;-65
2023/01/31 01:39:41;;;;;;;1.00;1.00;;;4.30;99.90;;;;;;6205023;28;20476;-65
2023/01/31 01:42:45;;;;;;;1.00;0.90;;;4.40;99.90;;;;;;6205023;28;20480;-65
2023/01/31 01:45:49;;;;;;;0.80;0.80;;;4.30;99.90;;;;;;6204767;28;20484;-65
2023/01/31 01:48:57;;;;;;;0.73;0.73;;;4.40;99.90;;;;;;6204596;28;20870;-65
2023/01/31 01:52:05;;;;;;;0.70;0.70;;;4.40;99.90;;;;;;6204685;28;20848;-65
2023/01/31 01:55:17;;;;;;;0.70;0.70;;;4.40;99.90;;;;;;6204732;28;20825;-65
2023/01/31 01:58:24;;;;;;;1.00;0.97;;;4.40;99.90;;;;;;6204488;28;20476;-65
2023/01/31 02:01:31;;;;;;;1.37;0.80;;;4.40;99.90;;;;;;6204669;28;20773;-65
2023/01/31 02:04:37;;;;;;;0.80;0.80;;;4.40;99.90;;;;;;6204552;28;20953;-65
2023/01/31 02:07:41;;;;;;;0.70;0.70;;;4.40;99.90;;;;;;6204263;28;20488;-65
2023/01/31 02:10:52;;;;;;;0.70;0.70;;;4.40;99.90;;;;;;6204184;28;21039;-65
2023/01/31 02:14:01;;;;;;;1.90;1.17;;;4.40;99.90;;;;;;6204010;28;20808;-65
2023/01/31 02:17:05;;;;;;;1.53;0.80;;;4.40;99.90;;;;;;6203664;28;20487;-65
2023/01/31 02:20:24;;;;;;;0.97;0.87;;;4.30;99.90;;;;;;6203068;28;20556;-65
2023/01/31 02:24:00;;;;;;;0.70;0.70;;;4.30;99.90;;;;;;6204055;28;20481;-65
2023/01/31 02:27:27;;;;;;;0.70;0.70;;;4.30;99.90;;;;;;6204222;28;20515;-65
2023/01/31 02:31:09;;;;;;;2.33;0.90;;;4.30;99.90;;;;;;6203750;28;20488;-65
2023/01/31 02:34:21;;;;;;;1.10;1.00;;;4.30;99.90;;;;;;6164790;28;20461;-65
2023/01/31 02:37:36;;;;;;;1.30;1.20;;;4.30;99.90;;;;;;6194474;28;20914;-65
2023/01/31 02:40:46;;;;;;;1.20;0.80;;;4.20;99.90;;;;;;6202966;28;20469;-65
2023/01/31 02:47:25;;;;;;;0.80;0.80;;;4.30;99.90;;;;;;6203189;28;20492;-65
2023/01/31 02:50:33;;;;;;;2.67;0.83;;;4.20;99.90;;;;;;6202976;28;20473;-67
2023/01/31 02:53:42;;;;;;;0.80;0.80;;;4.30;99.90;;;;;;6203484;28;20982;-66
2023/01/31 02:56:47;;;;;;;2.27;1.10;;;4.30;99.90;;;;;;6203210;28;20456;-66
2023/01/31 02:59:50;;;;;;;1.00;0.87;;;4.30;99.90;;;;;;6203159;28;20469;-66
2023/01/31 03:02:55;;;;;;;0.70;0.67;;;4.30;99.90;;;;;;6202698;28;20472;-65
2023/01/31 03:06:32;;;;;;;1.43;1.10;;;4.30;99.90;;;;;;6202785;28;20773;-66
2023/01/31 03:09:44;;;;;;;1.50;0.83;;;4.20;99.90;;;;;;6202728;28;20469;-65
2023/01/31 03:12:56;;;;;;;0.70;0.70;;;4.20;99.90;;;;;;6202786;28;20457;-66
2023/01/31 03:19:37;;;;;;;0.90;0.90;;;4.10;99.90;;;;;;6202075;28;20473;-65
2023/01/31 03:22:43;;;;;;;1.93;0.90;;;4.10;99.90;;;;;;6202440;28;20492;-65
2023/01/31 03:25:49;;;;;;;0.60;0.60;;;4.00;99.90;;;;;;6201860;28;20473;-66
2023/01/31 03:28:56;;;;;;;0.80;0.80;;;4.00;99.90;;;;;;6202262;28;20477;-65
2023/01/31 03:32:04;;;;;;;0.80;0.80;;;3.90;99.90;;;;;;6202002;28;20481;-65
2023/01/31 03:35:09;;;;;;;0.93;0.90;;;4.00;99.90;;;;;;6202091;28;20465;-65
2023/01/31 03:38:17;;;;;;;0.83;0.80;;;3.90;99.90;;;;;;6201636;28;20485;-65
2023/01/31 03:41:28;;;;;;;1.63;1.00;;;4.00;99.90;;;;;;6197299;28;20481;-65
2023/01/31 03:44:39;;;;;;;1.33;1.10;;;4.10;99.90;;;;;;6177262;28;20497;-65
2023/01/31 03:47:45;;;;;;;0.83;0.83;;;4.10;99.90;;;;;;6177850;28;20426;-65
2023/01/31 03:50:52;;;;;;;1.43;1.10;;;4.20;99.90;;;;;;6177292;28;20918;-65
2023/01/31 03:53:59;;;;;;;0.80;0.80;;;4.20;99.90;;;;;;6177743;28;21029;-65
2023/01/31 03:57:07;;;;;;;0.93;0.93;;;4.20;99.90;;;;;;6177291;28;20835;-65
2023/01/31 04:00:15;;;;;;;1.17;1.00;;;4.20;99.90;;;;;;6177330;28;20982;-65
2023/01/31 04:03:27;;;;;;;0.90;0.90;;;4.20;99.90;;;;;;6177293;28;20469;-65
2023/01/31 04:06:30;;;;;;;0.80;0.80;;;4.20;99.90;;;;;;6177361;28;20469;-65
2023/01/31 04:09:36;;;;;;;0.90;0.90;;;4.20;99.90;;;;;;6186476;28;20469;-65
2023/01/31 04:12:41;;;;;;;0.90;0.90;;;4.20;99.90;;;;;;6191347;28;20962;-65
2023/01/31 04:15:44;;;;;;;0.90;0.90;;;4.20;99.90;;;;;;6187631;28;20592;-65
2023/01/31 04:18:47;;;;;;;1.93;0.70;;;4.20;99.90;;;;;;6190214;28;20521;-65
2023/01/31 04:21:50;;;;;;;1.43;0.97;;;4.10;99.90;;;;;;6188496;28;20785;-65
2023/01/31 04:24:53;;;;;;;0.93;0.90;;;4.10;99.90;;;;;;6189196;28;20796;-65
2023/01/31 04:27:58;;;;;;;0.87;0.87;;;4.10;99.90;;;;;;6188975;28;20485;-64
2023/01/31 04:31:01;;;;;;;1.00;1.00;;;4.10;99.90;;;;;;6188502;28;20481;-65
2023/01/31 04:34:04;;;;;;;0.90;0.90;;;4.10;99.90;;;;;;6176810;28;20485;-65
2023/01/31 04:37:07;;;;;;;1.23;1.13;;;4.10;99.90;;;;;;6176804;28;20818;-64
2023/01/31 04:40:12;;;;;;;0.80;0.80;;;4.10;99.90;;;;;;6176934;28;20481;-65
2023/01/31 04:43:17;;;;;;;0.93;0.80;;;4.10;99.90;;;;;;6176482;28;20485;-65
2023/01/31 04:46:20;;;;;;;1.60;1.20;;;4.10;99.90;;;;;;6176787;28;20482;-65
2023/01/31 04:49:24;;;;;;;0.80;0.80;;;4.10;99.90;;;;;;6176256;28;20568;-65
2023/01/31 04:52:27;;;;;;;0.70;0.70;;;4.20;99.90;;;;;;6176646;28;20984;-66
2023/01/31 04:55:30;;;;;;;0.90;0.90;;;4.10;99.90;;;;;;6176925;28;20473;-65
2023/01/31 04:58:35;;;;;;;1.27;1.00;;;4.10;99.90;;;;;;6176277;28;20539;-65
2023/01/31 05:01:40;;;;;;;1.70;1.60;;;4.10;99.90;;;;;;6176599;28;20589;-65
2023/01/31 05:04:44;;;;;;;1.77;1.60;;;4.10;99.90;;;;;;6176643;28;20939;-65
2023/01/31 05:07:47;;;;;;;1.80;1.70;;;4.10;99.90;;;;;;6176582;28;20481;-65
2023/01/31 05:10:56;;;;;;;2.77;2.10;;;4.00;99.90;;;;;;6195630;28;20949;-65
2023/01/31 05:14:01;;;;;;;2.57;2.37;;;4.00;99.90;;;;;;6180138;28;20478;-65
2023/01/31 05:17:04;;;;;;;2.33;1.90;;;3.90;99.90;;;;;;6197321;28;20918;-65
2023/01/31 05:20:09;;;;;;;2.43;1.90;;;3.90;99.90;;;;;;6178567;28;20482;-65
2023/01/31 05:23:12;;;;;;;2.43;1.40;;;3.80;99.90;;;;;;6198318;28;20480;-65
2023/01/31 05:26:15;;;;;;;1.63;1.53;;;3.70;99.90;;;;;;6177839;28;20492;-65
2023/01/31 05:29:20;;;;;;;2.03;1.83;;;3.60;99.90;;;;;;6198758;28;20952;-65
2023/01/31 05:32:23;;;;;;;1.40;1.30;;;3.60;99.90;;;;;;6200479;28;20559;-65
2023/01/31 05:35:26;;;;;;;1.80;1.43;;;3.60;99.90;;;;;;6199943;28;20828;-65
2023/01/31 05:38:30;;;;;;;2.43;2.23;;;3.60;99.90;;;;;;6200293;28;20464;-65
2023/01/31 05:41:33;;;;;;;2.17;1.97;;;3.60;99.90;;;;;;6199455;28;20528;-64
2023/01/31 05:44:37;;;;;;;2.33;1.50;;;3.50;99.90;;;;;;6175886;28;20504;-64
2023/01/31 05:47:41;;;;;;;2.77;2.57;;;3.50;99.90;;;;;;6167069;28;20793;-64
2023/01/31 05:50:44;;;;;;;1.93;1.83;;;3.50;99.90;;;;;;6176099;28;20456;-65
2023/01/31 05:53:47;;;;;;;2.20;2.00;;;3.60;99.90;;;;;;6176154;28;20450;-65
2023/01/31 05:56:50;;;;;;;2.00;1.83;;;3.60;99.90;;;;;;6178948;28;20784;-64
2023/01/31 05:59:55;;;;;;;8.87;8.27;;;3.60;99.90;;;;;;6180427;28;20465;-65
2023/01/31 06:02:59;;;;;;;5.20;3.47;;;3.50;99.90;;;;;;6180220;28;20477;-65
2023/01/31 06:06:04;;;;;;;2.90;2.33;;;3.60;99.90;;;;;;6201952;28;20556;-65
2023/01/31 06:09:07;;;;;;;2.50;2.40;;;3.50;99.90;;;;;;6204296;28;20476;-66
2023/01/31 06:12:13;;;;;;;1.70;1.60;;;3.60;99.90;;;;;;6204151;28;20469;-64
2023/01/31 06:15:18;;;;;;;1.27;1.20;;;3.60;99.90;;;;;;6204217;28;20481;-64
2023/01/31 06:18:21;;;;;;;2.37;2.27;;;3.60;99.90;;;;;;6203706;28;20493;-65
2023/01/31 06:21:25;;;;;;;3.90;2.07;;;3.60;99.90;;;;;;6204105;28;20469;-66
2023/01/31 06:24:28;;;;;;;1.80;1.63;;;3.60;99.90;;;;;;6203621;28;20468;-64
2023/01/31 06:27:32;;;;;;;1.70;1.57;;;3.70;99.90;;;;;;6185598;28;20474;-65
2023/01/31 06:30:36;;;;;;;1.57;1.33;;;3.70;99.90;;;;;;6188743;28;20996;-65
2023/01/31 06:33:40;;;;;;;1.20;1.10;;;3.70;99.90;;;;;;6204441;28;20484;-65
2023/01/31 06:36:49;;;;;;;3.27;1.40;;;3.90;99.90;;;;;;6203872;28;20547;-65
2023/01/31 06:39:53;;;;;;;1.97;1.07;;;3.90;99.90;;;;;;6203492;28;20474;-66
2023/01/31 06:42:56;;;;;;;1.30;1.20;;;4.00;99.90;;;;;;6203260;28;20469;-65
2023/01/31 06:46:01;;;;;;;1.40;1.30;;;4.00;99.90;;;;;;6203405;28;20473;-65
2023/01/31 06:49:04;;;;;;;1.30;1.17;;;4.10;99.90;;;;;;6203147;28;20568;-65
2023/01/31 06:52:07;;;;;;;1.47;1.37;;;4.20;99.90;;;;;;6203402;28;20482;-65
2023/01/31 06:55:11;;;;;;;2.83;1.60;;;4.20;99.90;;;;;;6202807;28;20552;-65
2023/01/31 06:58:14;;;;;;;3.60;1.80;;;4.30;99.90;;;;;;6203074;28;20476;-65
2023/01/31 07:01:21;;;;;;;1.90;1.73;;;4.30;99.90;;;;;;6202213;28;20461;-64
2023/01/31 07:04:24;;;;;;;1.00;1.00;;;4.40;99.80;;;;;;6188097;28;20484;-64
2023/01/31 07:07:28;;;;;;;1.43;1.33;;;4.50;99.80;;;;;;6200773;28;20924;-64
2023/01/31 07:10:31;;;;;;;2.57;1.27;;;4.50;99.00;;;;;;6202667;28;20523;-64
2023/01/31 07:13:34;;;;;;;1.03;0.93;;;4.50;99.00;;;;;;6202492;28;20809;-64
2023/01/31 07:16:39;;;;;;;3.00;1.27;;;4.70;99.00;;;;;;6202505;28;20838;-64
2023/01/31 07:19:42;;;;;;;1.03;1.00;;;4.80;98.60;;;;;;6202490;28;20476;-64
2023/01/31 07:22:45;;;;;;;1.20;1.10;;;4.90;98.30;;;;;;6202329;28;20481;-64
2023/01/31 07:25:48;;;;;;;3.03;1.33;;;4.90;98.00;;;;;;6201891;28;20487;-64
2023/01/31 07:28:52;;;;;;;1.80;1.70;;;4.90;98.10;;;;;;6201632;28;20570;-64
2023/01/31 07:31:57;;;;;;;2.00;1.53;;;5.00;98.10;;;;;;6202029;28;20548;-64
2023/01/31 07:35:00;;;;;;;1.80;1.27;;;5.00;97.90;;;;;;6201602;28;20885;-65
2023/01/31 07:38:04;;;;;;;1.47;1.20;;;5.10;97.60;;;;;;6201128;28;20496;-65
2023/01/31 07:41:09;;;;;;;1.17;1.17;;;5.20;96.70;;;;;;6177438;28;20485;-65
2023/01/31 07:44:12;;;;;;;2.20;1.37;;;5.40;96.10;;;;;;6177321;28;20474;-65
2023/01/31 07:47:17;;;;;;;5.70;2.13;;;5.60;95.90;;;;;;6176254;28;20489;-66
2023/01/31 07:50:20;;;;;;;3.67;2.27;;;5.90;95.70;;;;;;6176345;28;20570;-66
2023/01/31 07:53:23;;;;;;;5.67;3.20;;;6.00;95.40;;;;;;6176198;28;20482;-65
2023/01/31 07:56:27;;;;;;;8.00;4.87;;;6.00;94.80;;;;;;6172650;28;21094;-65
2023/01/31 07:59:30;;;;;;;7.50;5.23;;;6.10;94.50;;;;;;6174428;28;20474;-65
2023/01/31 08:05:55;;;;;;;2.67;1.40;;;6.60;93.20;;;;;;6177083;28;20481;-65
2023/01/31 08:09:00;;;;;;;0.90;0.90;;;6.80;91.80;;;;;;6189498;28;20965;-65
2023/01/31 08:12:03;;;;;;;2.83;1.13;;;6.90;91.40;;;;;;6201016;28;20465;-65
2023/01/31 08:15:07;;;;;;;2.53;1.70;;;7.10;91.40;;;;;;6201396;28;20483;-65
2023/01/31 08:18:12;;;;;;;10.10;5.37;;;7.40;90.60;;;;;;6200564;28;20973;-65
2023/01/31 08:21:16;;;;;;;2.03;1.90;;;7.50;90.10;;;;;;6201208;28;20468;-65
2023/01/31 08:24:19;;;;;;;1.77;1.20;;;7.50;87.20;;;;;;6200902;28;20469;-65
2023/01/31 08:27:22;;;;;;;1.30;1.00;;;7.30;85.90;;;;;;6200654;28;20802;-65
2023/01/31 08:30:25;;;;;;;5.47;3.50;;;7.60;87.30;;;;;;6200810;28;20472;-65
2023/01/31 08:33:30;;;;;;;7.93;6.13;;;7.70;87.50;;;;;;6200964;28;20468;-65
2023/01/31 08:36:34;;;;;;;6.80;4.80;;;7.70;89.30;;;;;;6200873;28;20802;-65
2023/01/31 08:39:38;;;;;;;8.73;4.17;;;7.50;90.40;;;;;;6200679;28;20476;-65
2023/01/31 08:42:41;;;;;;;30.17;15.53;;;7.60;90.80;;;;;;6200975;28;21088;-65
2023/01/31 08:45:45;;;;;;;18.23;10.07;;;7.60;90.90;;;;;;6200450;28;20555;-65
2023/01/31 08:48:50;;;;;;;10.33;7.40;;;7.60;90.70;;;;;;6200927;28;20483;-65
2023/01/31 08:51:53;;;;;;;11.03;6.20;;;7.80;90.10;;;;;;6200671;28;20465;-65
2023/01/31 08:54:56;;;;;;;8.90;5.60;;;8.00;90.10;;;;;;6200766;28;20484;-65
2023/01/31 08:58:00;;;;;;;3.70;2.43;;;8.40;87.60;;;;;;6200677;28;20477;-64
2023/01/31 09:01:05;;;;;;;5.23;4.10;;;8.50;86.20;;;;;;6200304;28;20802;-64
2023/01/31 09:04:09;;;;;;;3.10;2.33;;;8.60;85.70;;;;;;6200667;28;20468;-64
2023/01/31 09:07:13;;;;;;;4.10;2.30;;;8.10;85.50;;;;;;6200669;28;20960;-65
2023/01/31 09:10:16;;;;;;;4.27;2.30;;;8.10;86.20;;;;;;6200007;28;20818;-65
2023/01/31 09:13:20;;;;;;;4.77;2.70;;;8.20;86.50;;;;;;6200285;28;20632;-65
2023/01/31 09:16:23;;;;;;;2.90;2.60;;;8.10;87.40;;;;;;6200392;28;20479;-65
2023/01/31 09:19:28;;;;;;;3.87;2.20;;;8.10;86.80;;;;;;6200463;28;20487;-66
2023/01/31 09:22:32;;;;;;;3.33;2.07;;;8.10;86.40;;;;;;6200586;28;20487;-67
2023/01/31 09:25:35;;;;;;;3.80;1.90;;;8.20;86.70;;;;;;6200612;28;20497;-65
2023/01/31 09:28:49;;;;;;;4.33;2.47;;;8.30;86.00;;;;;;6200515;28;20499;-66
2023/01/31 09:31:53;;;;;;;18.60;11.90;;;8.60;86.60;;;;;;6204974;28;20477;-66
2023/01/31 09:34:58;;;;;;;28.60;17.80;;;8.90;84.90;;;;;;6205152;28;20499;-65
2023/01/31 09:38:01;;;;;;;8.63;4.87;;;9.20;83.80;;;;;;6204447;28;20551;-66
2023/01/31 09:41:07;;;;;;;43.27;21.37;;;9.20;78.60;;;;;;6204610;28;20964;-65
2023/01/31 09:44:14;;;;;;;41.87;19.00;;;9.40;73.20;;;;;;6204676;28;20472;-65
2023/01/31 09:47:23;;;;;;;13.27;5.97;;;9.60;74.50;;;;;;6204541;28;20476;-66
2023/01/31 09:50:34;;;;;;;2.23;1.23;;;9.80;71.20;;;;;;6204113;28;20480;-66
2023/01/31 09:53:40;;;;;;;5.23;2.43;;;9.90;69.40;;;;;;6204517;28;20459;-66
2023/01/31 09:56:48;;;;;;;2.83;1.87;;;10.10;65.50;;;;;;6204493;28;20448;-66
2023/01/31 09:59:59;;;;;;;3.20;1.47;;;10.00;62.10;;;;;;6204557;28;20461;-66
2023/01/31 10:03:36;;;;;;;6.23;2.27;;;10.20;60.50;;;;;;6204726;28;20527;-66
2023/01/31 10:06:48;;;;;;;3.03;1.10;;;11.00;60.00;;;;;;6204379;28;20604;-66
2023/01/31 10:10:01;;;;;;;5.03;1.43;;;14.30;55.00;;;;;;6204021;28;20484;-66
2023/01/31 10:13:10;;;;;;;2.10;0.90;;;17.80;42.70;;;;;;6204468;28;20491;-67
2023/01/31 10:16:23;;;;;;;3.73;1.33;;;19.80;35.50;;;;;;6204105;28;20473;-66
2023/01/31 10:19:31;;;;;;;1.43;0.50;;;23.60;29.90;;;;;;6203857;28;20244;-66
2023/01/31 10:22:41;;;;;;;2.03;0.80;;;26.70;24.50;;;;;;6203777;28;20283;-66
2023/01/31 10:25:52;;;;;;;5.40;1.70;;;28.60;21.20;;;;;;6203827;28;20248;-66
2023/01/31 10:29:00;;;;;;;2.57;1.60;;;29.40;19.70;;;;;;6203465;28;20673;-67
2023/01/31 10:32:07;;;;;;;3.70;1.42;;;31.60;18.10;;;;;;6203872;28;20228;-67
2023/01/31 10:35:16;;;;;;;4.10;1.25;;;32.60;15.90;;;;;;6203746;28;20232;-67
2023/01/31 10:38:25;;;;;;;2.30;0.68;;;32.90;14.60;;;;;;6203840;28;20248;-66
2023/01/31 10:41:44;;;;;;;1.20;0.88;;;32.40;15.30;;;;;;6202704;28;20233;-67
2023/01/31 10:44:53;;;;;;;2.75;1.08;;;33.90;14.90;;;;;;6203359;28;20224;-67
2023/01/31 10:48:08;;;;;;;2.58;0.88;;;34.20;13.70;;;;;;6203514;28;20716;-69
2023/01/31 10:51:25;;;;;;;1.88;0.60;;;33.50;12.70;;;;;;6203512;28;20233;-66
2023/01/31 10:54:42;;;;;;;1.63;0.70;;;31.00;13.70;;;;;;6203534;28;20244;-66
2023/01/31 10:57:46;;;;;;;2.00;1.03;;;27.80;15.60;;;;;;6203241;28;20229;-66
2023/01/31 11:00:50;;;;;;;1.83;1.00;;;26.00;16.90;;;;;;6203073;28;20229;-66
2023/01/31 11:03:55;;;;;;;1.97;0.80;;;26.50;17.30;;;;;;6202887;28;20224;-66
2023/01/31 11:07:00;;;;;;;1.67;0.60;;;28.30;16.60;;;;;;6193456;28;20248;-66
2023/01/31 11:10:21;;;;;;;3.80;1.73;;;28.70;15.20;;;;;;6203455;28;20544;-66
2023/01/31 11:13:25;;;;;;;2.50;1.90;;;28.40;15.60;;;;;;6203689;28;20749;-66
2023/01/31 11:16:31;;;;;;;1.35;0.80;;;30.10;15.70;;;;;;6202784;28;20673;-67
2023/01/31 11:19:39;;;;;;;1.33;0.70;;;31.10;14.40;;;;;;6202557;28;20237;-67
2023/01/31 11:22:46;;;;;;;3.58;0.80;;;32.00;13.70;;;;;;6202680;28;20241;-67
2023/01/31 11:25:52;;;;;;;1.95;1.23;;;33.20;13.10;;;;;;6202739;28;20221;-67
2023/01/31 11:28:56;;;;;;;1.40;0.70;;;34.40;12.60;;;;;;6202521;28;20250;-67
2023/01/31 11:32:03;;;;;;;1.80;0.98;;;35.10;12.00;;;;;;6202389;28;20710;-68
2023/01/31 11:35:26;;;;;;;1.38;0.85;;;35.20;11.20;;;;;;6202190;28;20240;-67
2023/01/31 11:38:29;;;;;;;2.83;1.38;;;35.80;11.60;;;;;;6202363;28;20241;-67
2023/01/31 11:41:36;;;;;;;1.70;1.02;;;37.10;10.90;;;;;;6202044;28;20519;-67
2023/01/31 11:44:58;;;;;;;1.10;0.73;;;38.20;10.60;;;;;;6202169;28;20525;-67
2023/01/31 11:48:10;;;;;;;2.50;0.80;;;38.10;9.70;;;;;;6202047;28;20244;-67
2023/01/31 11:51:31;;;;;;;1.67;1.10;;;37.10;9.90;;;;;;6202009;28;20317;-67
2023/01/31 11:54:34;;;;;;;1.40;0.70;;;36.50;10.00;;;;;;6200682;28;20698;-62
2023/01/31 11:57:39;;;;;;;1.52;0.60;;;35.20;10.20;;;;;;6201642;28;20697;-64
2023/01/31 12:00:55;;;;;;;1.50;0.98;;;35.10;10.80;;;;;;6201527;28;20240;-62
2023/01/31 12:04:00;;;;;;;1.98;0.70;;;35.80;10.60;;;;;;6201589;28;20248;-62
2023/01/31 12:07:20;;;;;;;2.17;1.17;;;36.30;10.10;;;;;;6201597;28;20239;-62
2023/01/31 12:10:33;;;;;;;3.15;1.02;;;36.20;9.60;;;;;;6192267;28;20241;-62
2023/01/31 12:13:48;;;;;;;2.88;1.13;;;36.20;9.90;;;;;;6201599;28;20241;-62
2023/01/31 12:16:56;;;;;;;1.70;1.20;;;36.20;9.90;;;;;;6201354;28;20232;-62
2023/01/31 12:20:17;;;;;;;1.00;0.70;;;36.50;9.70;;;;;;6201427;28;20248;-63
2023/01/31 12:23:39;;;;;;;3.53;0.88;;;37.20;9.80;;;;;;6201339;28;20248;-63
2023/01/31 12:26:47;;;;;;;2.05;0.68;;;37.80;9.20;;;;;;6201207;28;20676;-62
2023/01/31 12:30:12;;;;;;;4.38;1.20;;;38.30;9.00;;;;;;6200796;28;20554;-62
2023/01/31 12:33:25;;;;;;;1.50;0.88;;;37.90;8.80;;;;;;6201566;28;20300;-62
2023/01/31 12:36:50;;;;;;;2.67;1.30;;;36.20;9.20;;;;;;6200869;28;20228;-62
2023/01/31 12:40:07;;;;;;;1.65;1.02;;;37.20;9.20;;;;;;6201133;28;20263;-63
2023/01/31 12:43:46;;;;;;;1.58;0.80;;;37.40;9.10;;;;;;6201262;28;20285;-62
2023/01/31 12:47:13;;;;;;;3.95;0.98;;;37.30;9.10;;;;;;6200978;28;20675;-62
2023/01/31 12:50:31;;;;;;;1.92;0.88;;;37.80;8.90;;;;;;6201251;28;20233;-62
2023/01/31 12:53:47;;;;;;;1.90;1.10;;;35.70;8.60;;;;;;6201197;28;20221;-62
2023/01/31 12:57:04;;;;;;;2.70;1.23;;;33.60;9.70;;;;;;6200718;28;20232;-62
2023/01/31 13:00:25;;;;;;;2.17;1.42;;;32.90;10.30;;;;;;6200580;28;20672;-62
2023/01/31 13:03:44;;;;;;;1.85;1.15;;;33.70;10.60;;;;;;6200779;28;20248;-62
2023/01/31 13:06:51;;;;;;;5.00;1.15;;;34.80;9.90;;;;;;6205130;28;20665;-62
2023/01/31 13:09:58;;;;;;;2.85;0.80;;;35.00;9.60;;;;;;6204923;28;20583;-63
2023/01/31 13:13:04;;;;;;;2.55;0.75;;;34.10;9.40;;;;;;6196845;28;20263;-62
2023/01/31 13:16:13;;;;;;;2.13;1.45;;;33.20;9.90;;;;;;6206285;28;20684;-62
2023/01/31 13:19:24;;;;;;;2.45;1.33;;;32.90;10.40;;;;;;6205713;28;20240;-62
2023/01/31 13:22:37;;;;;;;1.63;0.93;;;32.70;10.00;;;;;;6205143;28;20224;-62
2023/01/31 13:25:43;;;;;;;1.73;0.90;;;32.70;10.00;;;;;;6204718;28;20590;-63
2023/01/31 13:28:51;;;;;;;2.78;1.08;;;32.10;10.10;;;;;;6204567;28;20237;-62
2023/01/31 13:32:00;;;;;;;1.98;1.17;;;32.50;10.50;;;;;;6204545;28;20589;-62
2023/01/31 13:35:15;;;;;;;1.85;1.10;;;33.80;10.30;;;;;;6204701;28;20689;-62
2023/01/31 13:38:20;;;;;;;2.70;1.00;;;34.10;9.80;;;;;;6204685;28;20240;-63
2023/01/31 13:41:28;;;;;;;2.90;0.98;;;34.00;9.90;;;;;;6204524;28;20680;-62
2023/01/31 13:44:32;;;;;;;5.38;1.77;;;32.90;10.10;;;;;;6204209;28;20221;-62
2023/01/31 13:47:45;;;;;;;1.40;0.80;;;31.50;10.90;;;;;;6204828;28;20216;-62
2023/01/31 13:50:54;;;;;;;2.00;0.63;;;31.00;10.90;;;;;;6204886;28;20209;-62
2023/01/31 13:54:04;;;;;;;4.73;0.90;;;30.50;11.10;;;;;;6204875;28;20235;-62
2023/01/31 13:57:19;;;;;;;3.33;1.23;;;30.10;11.60;;;;;;6204580;28;20224;-62
2023/01/31 14:00:36;;;;;;;2.37;0.87;;;30.80;11.60;;;;;;6204625;28;20238;-62
2023/01/31 14:04:17;;;;;;;4.80;1.50;;;31.20;11.20;;;;;;6204687;28;20236;-62
2023/01/31 14:07:23;;;;;;;3.90;2.10;;;30.30;11.30;;;;;;6203823;28;20576;-63
2023/01/31 14:10:29;;;;;;;4.10;2.10;;;28.80;12.10;;;;;;6203599;28;20261;-62
2023/01/31 14:13:41;;;;;;;4.07;1.80;;;27.70;12.60;;;;;;6204402;28;20255;-62
2023/01/31 14:16:45;;;;;;;1.00;0.73;;;27.10;13.30;;;;;;6198240;28;20233;-62
2023/01/31 14:20:04;;;;;;;3.40;1.17;;;26.50;14.30;;;;;;6203831;28;20233;-62
2023/01/31 14:23:30;;;;;;;2.00;1.10;;;24.40;14.60;;;;;;6203687;28;20244;-62
2023/01/31 14:26:37;;;;;;;3.50;0.90;;;22.30;16.00;;;;;;6203490;28;20235;-62
2023/01/31 14:29:43;;;;;;;2.73;0.93;;;20.80;17.00;;;;;;6203319;28;20528;-62
2023/01/31 14:32:49;;;;;;;2.77;1.20;;;19.30;18.20;;;;;;6203987;28;20190;-62
2023/01/31 14:36:33;;;;;;;1.40;1.30;;;18.10;18.70;;;;;;6203549;28;20222;-62
2023/01/31 14:40:13;;;;;;;3.23;1.10;;;17.00;19.30;;;;;;6105903;28;20477;-62
2023/01/31 14:43:36;;;;;;;3.77;1.50;;;15.90;20.40;;;;;;6203057;28;20469;-61
2023/01/31 14:47:07;;;;;;;1.90;1.10;;;15.10;21.70;;;;;;6201652;28;20469;-62
2023/01/31 14:50:34;;;;;;;3.77;1.50;;;14.20;22.30;;;;;;6187292;28;20473;-63
2023/01/31 14:53:57;;;;;;;1.80;0.90;;;13.70;23.10;;;;;;6199583;28;20934;-62
2023/01/31 14:57:24;;;;;;;1.13;1.00;;;13.50;23.70;;;;;;6190981;28;20477;-63
2023/01/31 15:00:30;;;;;;;7.60;1.63;;;13.20;23.90;;;;;;6187205;28;20609;-62
2023/01/31 15:03:36;;;;;;;4.03;0.80;;;13.00;24.20;;;;;;6177392;28;20478;-63
2023/01/31 15:06:42;;;;;;;2.23;1.00;;;12.70;24.50;;;;;;6177427;28;20470;-61
2023/01/31 15:09:48;;;;;;;2.10;1.13;;;12.50;25.20;;;;;;6183790;28;21048;-61
2023/01/31 15:12:55;;;;;;;3.00;0.80;;;12.20;24.40;;;;;;6191211;28;20480;-61
2023/01/31 15:15:59;;;;;;;3.13;1.57;;;12.00;25.00;;;;;;6189609;28;20477;-61
2023/01/31 15:19:11;;;;;;;3.53;1.63;;;11.80;25.20;;;;;;6189731;28;20480;-61
2023/01/31 15:22:18;;;;;;;2.70;2.47;;;11.70;25.80;;;;;;6189531;28;20469;-61
2023/01/31 15:25:29;;;;;;;3.93;1.90;;;11.60;26.30;;;;;;6191082;28;20828;-61
2023/01/31 15:28:41;;;;;;;2.00;1.77;;;11.50;26.20;;;;;;6187807;28;21018;-61
2023/01/31 15:31:48;;;;;;;2.90;1.60;;;11.30;26.40;;;;;;6188141;28;20474;-65
2023/01/31 15:34:57;;;;;;;3.13;1.83;;;11.20;26.60;;;;;;6196267;28;20822;-62
2023/01/31 15:38:04;;;;;;;1.90;1.40;;;11.10;26.80;;;;;;6191641;28;20473;-61
2023/01/31 15:41:35;;;;;;;4.23;2.83;;;10.90;25.90;;;;;;6189042;28;20474;-61
2023/01/31 15:44:39;;;;;;;6.83;2.40;;;10.60;26.00;;;;;;6196387;28;20457;-60
2023/01/31 15:47:43;;;;;;;2.10;1.30;;;10.50;26.60;;;;;;6178060;28;20442;-61
2023/01/31 15:50:52;;;;;;;3.20;1.10;;;10.20;26.40;;;;;;6177871;28;20458;-60
2023/01/31 15:54:04;;;;;;;6.03;2.13;;;10.10;26.60;;;;;;6190743;28;20465;-60
2023/01/31 15:57:15;;;;;;;2.07;1.50;;;10.00;27.20;;;;;;6202106;28;20472;-60
2023/01/31 16:00:24;;;;;;;2.17;1.53;;;9.80;28.20;;;;;;6201714;28;20476;-60
2023/01/31 16:03:29;;;;;;;4.40;1.60;;;9.80;28.30;;;;;;6201687;28;20487;-60
2023/01/31 16:06:34;;;;;;;2.80;1.97;;;9.70;28.30;;;;;;6201670;28;20600;-60
2023/01/31 16:09:39;;;;;;;3.77;2.00;;;9.60;28.30;;;;;;6185539;28;20958;-60
2023/01/31 16:12:47;;;;;;;2.90;2.07;;;9.50;28.60;;;;;;6201254;28;20500;-60
2023/01/31 16:15:53;;;;;;;6.50;1.97;;;9.40;28.60;;;;;;6201225;28;20476;-60
2023/01/31 16:18:58;;;;;;;5.60;2.23;;;9.30;29.00;;;;;;6201036;28;20480;-60
2023/01/31 16:22:03;;;;;;;8.80;3.63;;;9.30;29.10;;;;;;6201266;28;20488;-60
2023/01/31 16:25:17;;;;;;;3.03;1.77;;;9.20;29.40;;;;;;6201145;28;20468;-60
2023/01/31 16:28:22;;;;;;;4.00;1.67;;;9.10;29.70;;;;;;6176804;28;20513;-60
2023/01/31 16:31:30;;;;;;;4.20;2.13;;;9.10;29.70;;;;;;6177310;28;20476;-60
2023/01/31 16:34:36;;;;;;;5.43;2.37;;;9.00;29.90;;;;;;6176894;28;20605;-61
2023/01/31 16:37:40;;;;;;;10.63;3.70;;;9.00;30.00;;;;;;6193160;28;20472;-61